sensor_id;sensor_type;location;lat;lon;timestamp;P1;durP1;ratioP1;P2;durP2;ratioP2
4311;SDS011;2169;49.086;9.284;2023-10-09T00:01:39;9.40;;;4.90;;
4311;SDS011;2169;49.086;9.284;2023-10-09T00:04:09;5.60;;;3.37;;
4311;SDS011;2169;49.086;9.284;2023-10-09T00:06:37;3.77;;;3.13;;
4311;SDS011;2169;49.086;9.284;2023-10-09T00:09:04;16.87;;;4.70;;
4311;SDS011;2169;49.086;9.284;2023-10-09T00:11:57;5.20;;;4.10;;
4311;SDS011;2169;49.086;9.284;2023-10-09T00:14:27;5.47;;;3.83;;
4311;SDS011;2169;49.086;9.284;2023-10-09T00:16:59;6.60;;;4.03;;
4311;SDS011;2169;49.086;9.284;2023-10-09T00:19:42;13.63;;;4.50;;
4311;SDS011;2169;49.086;9.284;2023-10-09T00:22:12;3.43;;;2.63;;
4311;SDS011;2169;49.086;9.284;2023-10-09T00:24:51;20.30;;;3.70;;
4311;SDS011;2169;49.086;9.284;2023-10-09T00:27:36;5.33;;;4.27;;
4311;SDS011;2169;49.086;9.284;2023-10-09T00:30:08;24.40;;;5.60;;
4311;SDS011;2169;49.086;9.284;2023-10-09T00:32:40;8.30;;;3.50;;
4311;SDS011;2169;49.086;9.284;2023-10-09T00:35:17;7.30;;;2.73;;
4311;SDS011;2169;49.086;9.284;2023-10-09T00:38:01;5.63;;;3.20;;
4311;SDS011;2169;49.086;9.284;2023-10-09T00:40:39;17.97;;;5.50;;
4311;SDS011;2169;49.086;9.284;2023-10-09T00:43:21;12.63;;;5.33;;
4311;SDS011;2169;49.086;9.284;2023-10-09T00:45:55;7.27;;;3.47;;
4311;SDS011;2169;49.086;9.284;2023-10-09T00:48:27;7.83;;;4.13;;
4311;SDS011;2169;49.086;9.284;2023-10-09T00:51:03;4.77;;;4.10;;
4311;SDS011;2169;49.086;9.284;2023-10-09T00:53:42;3.40;;;3.17;;
4311;SDS011;2169;49.086;9.284;2023-10-09T00:56:10;5.10;;;4.10;;
4311;SDS011;2169;49.086;9.284;2023-10-09T00:58:44;20.77;;;5.73;;
4311;SDS011;2169;49.086;9.284;2023-10-09T01:01:15;4.67;;;3.70;;
4311;SDS011;2169;49.086;9.284;2023-10-09T01:03:44;6.30;;;3.67;;
4311;SDS011;2169;49.086;9.284;2023-10-09T01:06:10;4.60;;;3.30;;
4311;SDS011;2169;49.086;9.284;2023-10-09T01:08:46;9.00;;;3.63;;
4311;SDS011;2169;49.086;9.284;2023-10-09T01:11:21;15.80;;;3.77;;
4311;SDS011;2169;49.086;9.284;2023-10-09T01:13:55;13.73;;;4.80;;
4311;SDS011;2169;49.086;9.284;2023-10-09T01:16:38;12.47;;;4.27;;
4311;SDS011;2169;49.086;9.284;2023-10-09T01:19:08;8.77;;;4.33;;
4311;SDS011;2169;49.086;9.284;2023-10-09T01:21:44;17.23;;;4.20;;
4311;SDS011;2169;49.086;9.284;2023-10-09T01:24:14;6.40;;;3.30;;
4311;SDS011;2169;49.086;9.284;2023-10-09T01:26:42;10.07;;;4.67;;
4311;SDS011;2169;49.086;9.284;2023-10-09T01:29:12;4.53;;;2.73;;
4311;SDS011;2169;49.086;9.284;2023-10-09T01:31:41;9.33;;;3.87;;
4311;SDS011;2169;49.086;9.284;2023-10-09T01:34:16;4.43;;;3.00;;
4311;SDS011;2169;49.086;9.284;2023-10-09T01:36:45;4.67;;;3.30;;
4311;SDS011;2169;49.086;9.284;2023-10-09T01:39:15;11.00;;;3.60;;
4311;SDS011;2169;49.086;9.284;2023-10-09T01:41:53;4.73;;;3.27;;
4311;SDS011;2169;49.086;9.284;2023-10-09T01:44:30;5.70;;;3.97;;
4311;SDS011;2169;49.086;9.284;2023-10-09T01:47:00;7.83;;;4.57;;
4311;SDS011;2169;49.086;9.284;2023-10-09T01:49:32;9.50;;;4.07;;
4311;SDS011;2169;49.086;9.284;2023-10-09T01:52:01;13.40;;;3.67;;
4311;SDS011;2169;49.086;9.284;2023-10-09T01:54:35;18.97;;;4.70;;
4311;SDS011;2169;49.086;9.284;2023-10-09T01:57:06;4.77;;;3.67;;
4311;SDS011;2169;49.086;9.284;2023-10-09T01:59:37;11.83;;;4.10;;
4311;SDS011;2169;49.086;9.284;2023-10-09T02:02:09;8.70;;;3.30;;
4311;SDS011;2169;49.086;9.284;2023-10-09T02:04:49;6.70;;;3.80;;
4311;SDS011;2169;49.086;9.284;2023-10-09T02:07:17;11.20;;;3.90;;
4311;SDS011;2169;49.086;9.284;2023-10-09T02:09:51;12.80;;;4.10;;
4311;SDS011;2169;49.086;9.284;2023-10-09T02:12:19;8.80;;;4.70;;
4311;SDS011;2169;49.086;9.284;2023-10-09T02:14:49;13.87;;;4.63;;
4311;SDS011;2169;49.086;9.284;2023-10-09T02:17:19;5.60;;;4.23;;
4311;SDS011;2169;49.086;9.284;2023-10-09T02:19:53;8.70;;;4.00;;
4311;SDS011;2169;49.086;9.284;2023-10-09T02:22:21;6.60;;;3.63;;
4311;SDS011;2169;49.086;9.284;2023-10-09T02:24:52;17.50;;;4.80;;
4311;SDS011;2169;49.086;9.284;2023-10-09T02:27:30;18.03;;;3.73;;
4311;SDS011;2169;49.086;9.284;2023-10-09T02:30:10;4.43;;;2.57;;
4311;SDS011;2169;49.086;9.284;2023-10-09T02:32:51;6.67;;;3.90;;
4311;SDS011;2169;49.086;9.284;2023-10-09T02:35:31;5.90;;;4.20;;
4311;SDS011;2169;49.086;9.284;2023-10-09T02:38:03;7.23;;;3.50;;
4311;SDS011;2169;49.086;9.284;2023-10-09T02:40:43;7.00;;;3.97;;
4311;SDS011;2169;49.086;9.284;2023-10-09T02:43:24;8.30;;;2.80;;
4311;SDS011;2169;49.086;9.284;2023-10-09T02:45:51;15.30;;;4.47;;
4311;SDS011;2169;49.086;9.284;2023-10-09T02:48:18;15.97;;;4.63;;
4311;SDS011;2169;49.086;9.284;2023-10-09T02:50:49;11.70;;;4.10;;
4311;SDS011;2169;49.086;9.284;2023-10-09T02:53:16;18.20;;;4.70;;
4311;SDS011;2169;49.086;9.284;2023-10-09T02:55:46;10.27;;;3.93;;
4311;SDS011;2169;49.086;9.284;2023-10-09T02:58:45;6.80;;;3.73;;
4311;SDS011;2169;49.086;9.284;2023-10-09T03:01:13;15.10;;;4.80;;
4311;SDS011;2169;49.086;9.284;2023-10-09T03:03:40;11.90;;;4.70;;
4311;SDS011;2169;49.086;9.284;2023-10-09T03:06:10;4.37;;;3.17;;
4311;SDS011;2169;49.086;9.284;2023-10-09T03:08:39;14.10;;;2.37;;
4311;SDS011;2169;49.086;9.284;2023-10-09T03:11:11;16.73;;;5.10;;
4311;SDS011;2169;49.086;9.284;2023-10-09T03:13:42;6.70;;;3.20;;
4311;SDS011;2169;49.086;9.284;2023-10-09T03:16:10;8.80;;;3.87;;
4311;SDS011;2169;49.086;9.284;2023-10-09T03:18:41;3.30;;;2.50;;
4311;SDS011;2169;49.086;9.284;2023-10-09T03:21:08;7.97;;;3.87;;
4311;SDS011;2169;49.086;9.284;2023-10-09T03:23:34;4.63;;;3.10;;
4311;SDS011;2169;49.086;9.284;2023-10-09T03:26:01;5.50;;;4.30;;
4311;SDS011;2169;49.086;9.284;2023-10-09T03:28:30;10.33;;;4.03;;
4311;SDS011;2169;49.086;9.284;2023-10-09T03:30:57;7.60;;;3.97;;
4311;SDS011;2169;49.086;9.284;2023-10-09T03:33:27;11.10;;;4.37;;
4311;SDS011;2169;49.086;9.284;2023-10-09T03:35:58;9.30;;;3.90;;
4311;SDS011;2169;49.086;9.284;2023-10-09T03:38:25;5.17;;;3.67;;
4311;SDS011;2169;49.086;9.284;2023-10-09T03:40:54;9.30;;;4.27;;
4311;SDS011;2169;49.086;9.284;2023-10-09T03:43:21;10.90;;;3.73;;
4311;SDS011;2169;49.086;9.284;2023-10-09T03:45:49;9.13;;;3.47;;
4311;SDS011;2169;49.086;9.284;2023-10-09T03:48:18;7.30;;;3.03;;
4311;SDS011;2169;49.086;9.284;2023-10-09T03:50:51;10.10;;;3.93;;
4311;SDS011;2169;49.086;9.284;2023-10-09T03:53:33;15.50;;;4.33;;
4311;SDS011;2169;49.086;9.284;2023-10-09T03:56:02;16.93;;;3.70;;
4311;SDS011;2169;49.086;9.284;2023-10-09T03:58:36;5.43;;;3.23;;
4311;SDS011;2169;49.086;9.284;2023-10-09T04:01:08;8.03;;;4.80;;
4311;SDS011;2169;49.086;9.284;2023-10-09T04:03:43;15.60;;;4.17;;
4311;SDS011;2169;49.086;9.284;2023-10-09T04:06:10;7.77;;;4.57;;
4311;SDS011;2169;49.086;9.284;2023-10-09T04:08:37;10.17;;;3.90;;
4311;SDS011;2169;49.086;9.284;2023-10-09T04:11:12;12.20;;;4.87;;
4311;SDS011;2169;49.086;9.284;2023-10-09T04:13:42;9.20;;;4.00;;
4311;SDS011;2169;49.086;9.284;2023-10-09T04:16:12;13.33;;;3.70;;
4311;SDS011;2169;49.086;9.284;2023-10-09T04:19:00;10.33;;;3.67;;
4311;SDS011;2169;49.086;9.284;2023-10-09T04:21:32;6.20;;;3.40;;
4311;SDS011;2169;49.086;9.284;2023-10-09T04:24:01;10.60;;;3.97;;
4311;SDS011;2169;49.086;9.284;2023-10-09T04:26:46;10.43;;;3.87;;
4311;SDS011;2169;49.086;9.284;2023-10-09T04:29:13;11.20;;;5.47;;
4311;SDS011;2169;49.086;9.284;2023-10-09T04:31:45;27.47;;;5.10;;
4311;SDS011;2169;49.086;9.284;2023-10-09T04:34:16;16.10;;;3.00;;
4311;SDS011;2169;49.086;9.284;2023-10-09T04:36:54;11.53;;;4.17;;
4311;SDS011;2169;49.086;9.284;2023-10-09T04:39:25;13.87;;;5.83;;
4311;SDS011;2169;49.086;9.284;2023-10-09T04:42:02;7.80;;;3.97;;
4311;SDS011;2169;49.086;9.284;2023-10-09T04:44:47;4.40;;;3.20;;
4311;SDS011;2169;49.086;9.284;2023-10-09T04:47:46;10.60;;;3.37;;
4311;SDS011;2169;49.086;9.284;2023-10-09T04:50:15;7.20;;;2.50;;
4311;SDS011;2169;49.086;9.284;2023-10-09T04:52:56;7.63;;;3.40;;
4311;SDS011;2169;49.086;9.284;2023-10-09T04:55:43;7.40;;;3.10;;
4311;SDS011;2169;49.086;9.284;2023-10-09T04:58:19;11.53;;;3.57;;
4311;SDS011;2169;49.086;9.284;2023-10-09T05:00:50;8.60;;;4.00;;
4311;SDS011;2169;49.086;9.284;2023-10-09T05:03:40;9.13;;;4.20;;
4311;SDS011;2169;49.086;9.284;2023-10-09T05:06:11;11.47;;;4.87;;
4311;SDS011;2169;49.086;9.284;2023-10-09T05:09:07;11.60;;;3.07;;
4311;SDS011;2169;49.086;9.284;2023-10-09T05:11:40;10.33;;;3.50;;
4311;SDS011;2169;49.086;9.284;2023-10-09T05:14:21;13.27;;;3.63;;
4311;SDS011;2169;49.086;9.284;2023-10-09T05:16:52;9.17;;;3.87;;
4311;SDS011;2169;49.086;9.284;2023-10-09T05:19:27;14.47;;;3.60;;
4311;SDS011;2169;49.086;9.284;2023-10-09T05:22:14;17.10;;;3.60;;
4311;SDS011;2169;49.086;9.284;2023-10-09T05:24:54;14.20;;;4.07;;
4311;SDS011;2169;49.086;9.284;2023-10-09T05:27:21;10.70;;;3.90;;
4311;SDS011;2169;49.086;9.284;2023-10-09T05:30:10;9.20;;;4.40;;
4311;SDS011;2169;49.086;9.284;2023-10-09T05:32:54;13.07;;;4.93;;
4311;SDS011;2169;49.086;9.284;2023-10-09T05:35:25;18.57;;;4.73;;
4311;SDS011;2169;49.086;9.284;2023-10-09T05:38:06;20.80;;;4.03;;
4311;SDS011;2169;49.086;9.284;2023-10-09T05:40:40;6.37;;;2.83;;
4311;SDS011;2169;49.086;9.284;2023-10-09T05:43:08;8.07;;;4.00;;
4311;SDS011;2169;49.086;9.284;2023-10-09T05:45:59;11.77;;;4.03;;
4311;SDS011;2169;49.086;9.284;2023-10-09T05:48:33;5.00;;;3.97;;
4311;SDS011;2169;49.086;9.284;2023-10-09T05:51:21;7.37;;;2.50;;
4311;SDS011;2169;49.086;9.284;2023-10-09T05:54:13;6.30;;;3.60;;
4311;SDS011;2169;49.086;9.284;2023-10-09T05:56:58;7.50;;;3.03;;
4311;SDS011;2169;49.086;9.284;2023-10-09T05:59:42;23.47;;;3.97;;
4311;SDS011;2169;49.086;9.284;2023-10-09T06:02:26;6.63;;;3.20;;
4311;SDS011;2169;49.086;9.284;2023-10-09T06:05:25;14.23;;;7.40;;
4311;SDS011;2169;49.086;9.284;2023-10-09T06:08:18;3.73;;;2.93;;
4311;SDS011;2169;49.086;9.284;2023-10-09T06:10:50;2.60;;;2.40;;
4311;SDS011;2169;49.086;9.284;2023-10-09T06:13:31;11.43;;;3.37;;
4311;SDS011;2169;49.086;9.284;2023-10-09T06:16:06;9.73;;;4.80;;
4311;SDS011;2169;49.086;9.284;2023-10-09T06:18:45;4.90;;;3.77;;
4311;SDS011;2169;49.086;9.284;2023-10-09T06:21:32;11.70;;;4.30;;
4311;SDS011;2169;49.086;9.284;2023-10-09T06:24:09;12.27;;;5.73;;
4311;SDS011;2169;49.086;9.284;2023-10-09T06:26:40;11.20;;;4.97;;
4311;SDS011;2169;49.086;9.284;2023-10-09T06:29:16;20.27;;;5.47;;
4311;SDS011;2169;49.086;9.284;2023-10-09T06:31:58;9.57;;;3.60;;
4311;SDS011;2169;49.086;9.284;2023-10-09T06:34:42;21.70;;;5.70;;
4311;SDS011;2169;49.086;9.284;2023-10-09T06:37:16;9.07;;;4.47;;
4311;SDS011;2169;49.086;9.284;2023-10-09T06:40:01;12.13;;;5.43;;
4311;SDS011;2169;49.086;9.284;2023-10-09T06:42:57;8.43;;;5.57;;
4311;SDS011;2169;49.086;9.284;2023-10-09T06:45:34;9.57;;;5.83;;
4311;SDS011;2169;49.086;9.284;2023-10-09T06:48:10;11.13;;;5.50;;
4311;SDS011;2169;49.086;9.284;2023-10-09T06:50:57;13.10;;;6.70;;
4311;SDS011;2169;49.086;9.284;2023-10-09T06:53:29;10.40;;;4.80;;
4311;SDS011;2169;49.086;9.284;2023-10-09T06:56:25;13.50;;;5.33;;
4311;SDS011;2169;49.086;9.284;2023-10-09T06:59:16;12.80;;;4.97;;
4311;SDS011;2169;49.086;9.284;2023-10-09T07:01:46;10.93;;;3.90;;
4311;SDS011;2169;49.086;9.284;2023-10-09T07:04:33;11.93;;;3.60;;
4311;SDS011;2169;49.086;9.284;2023-10-09T07:07:11;19.97;;;4.77;;
4311;SDS011;2169;49.086;9.284;2023-10-09T07:09:41;10.77;;;4.57;;
4311;SDS011;2169;49.086;9.284;2023-10-09T07:12:09;17.37;;;5.50;;
4311;SDS011;2169;49.086;9.284;2023-10-09T07:14:39;20.20;;;4.37;;
4311;SDS011;2169;49.086;9.284;2023-10-09T07:17:24;9.33;;;3.83;;
4311;SDS011;2169;49.086;9.284;2023-10-09T07:20:08;14.47;;;5.17;;
4311;SDS011;2169;49.086;9.284;2023-10-09T07:22:38;10.73;;;5.80;;
4311;SDS011;2169;49.086;9.284;2023-10-09T07:25:18;14.60;;;6.57;;
4311;SDS011;2169;49.086;9.284;2023-10-09T07:28:08;14.73;;;7.47;;
4311;SDS011;2169;49.086;9.284;2023-10-09T07:31:01;21.60;;;6.13;;
4311;SDS011;2169;49.086;9.284;2023-10-09T07:33:28;20.93;;;7.07;;
4311;SDS011;2169;49.086;9.284;2023-10-09T07:36:17;10.97;;;7.13;;
4311;SDS011;2169;49.086;9.284;2023-10-09T07:38:55;17.60;;;9.07;;
4311;SDS011;2169;49.086;9.284;2023-10-09T07:41:29;24.53;;;8.23;;
4311;SDS011;2169;49.086;9.284;2023-10-09T07:44:04;17.37;;;6.90;;
4311;SDS011;2169;49.086;9.284;2023-10-09T07:46:46;18.17;;;7.93;;
4311;SDS011;2169;49.086;9.284;2023-10-09T07:49:38;29.07;;;7.10;;
4311;SDS011;2169;49.086;9.284;2023-10-09T07:52:07;14.77;;;6.63;;
4311;SDS011;2169;49.086;9.284;2023-10-09T07:54:34;23.57;;;7.90;;
4311;SDS011;2169;49.086;9.284;2023-10-09T07:57:01;21.03;;;7.90;;
4311;SDS011;2169;49.086;9.284;2023-10-09T07:59:42;15.33;;;6.57;;
4311;SDS011;2169;49.086;9.284;2023-10-09T08:02:19;26.93;;;7.00;;
4311;SDS011;2169;49.086;9.284;2023-10-09T08:04:56;26.17;;;9.80;;
4311;SDS011;2169;49.086;9.284;2023-10-09T08:07:28;26.60;;;7.07;;
4311;SDS011;2169;49.086;9.284;2023-10-09T08:10:00;16.73;;;7.60;;
4311;SDS011;2169;49.086;9.284;2023-10-09T08:12:45;11.50;;;6.80;;
4311;SDS011;2169;49.086;9.284;2023-10-09T08:15:26;25.87;;;7.07;;
4311;SDS011;2169;49.086;9.284;2023-10-09T08:17:59;17.67;;;5.83;;
4311;SDS011;2169;49.086;9.284;2023-10-09T08:20:35;12.43;;;6.30;;
4311;SDS011;2169;49.086;9.284;2023-10-09T08:23:36;14.67;;;5.83;;
4311;SDS011;2169;49.086;9.284;2023-10-09T08:26:20;12.53;;;4.33;;
4311;SDS011;2169;49.086;9.284;2023-10-09T08:29:12;9.40;;;4.70;;
4311;SDS011;2169;49.086;9.284;2023-10-09T08:31:44;9.20;;;4.50;;
4311;SDS011;2169;49.086;9.284;2023-10-09T08:34:21;12.60;;;3.93;;
4311;SDS011;2169;49.086;9.284;2023-10-09T08:36:51;16.03;;;6.27;;
4311;SDS011;2169;49.086;9.284;2023-10-09T08:39:19;14.53;;;3.57;;
4311;SDS011;2169;49.086;9.284;2023-10-09T08:41:52;14.07;;;4.63;;
4311;SDS011;2169;49.086;9.284;2023-10-09T08:44:23;15.93;;;6.40;;
4311;SDS011;2169;49.086;9.284;2023-10-09T08:46:55;8.80;;;4.67;;
4311;SDS011;2169;49.086;9.284;2023-10-09T08:49:25;13.37;;;6.60;;
4311;SDS011;2169;49.086;9.284;2023-10-09T08:51:52;24.10;;;5.60;;
4311;SDS011;2169;49.086;9.284;2023-10-09T08:54:21;15.07;;;4.57;;
4311;SDS011;2169;49.086;9.284;2023-10-09T08:56:48;14.63;;;5.53;;
4311;SDS011;2169;49.086;9.284;2023-10-09T08:59:19;21.80;;;7.67;;
4311;SDS011;2169;49.086;9.284;2023-10-09T09:01:46;36.03;;;7.07;;
4311;SDS011;2169;49.086;9.284;2023-10-09T09:07:05;6.40;;;3.90;;
4311;SDS011;2169;49.086;9.284;2023-10-09T09:09:33;18.90;;;3.80;;
4311;SDS011;2169;49.086;9.284;2023-10-09T09:12:01;18.30;;;4.80;;
4311;SDS011;2169;49.086;9.284;2023-10-09T09:14:36;9.60;;;4.17;;
4311;SDS011;2169;49.086;9.284;2023-10-09T09:17:09;12.43;;;5.53;;
4311;SDS011;2169;49.086;9.284;2023-10-09T09:19:37;11.87;;;4.80;;
4311;SDS011;2169;49.086;9.284;2023-10-09T09:22:04;12.03;;;4.30;;
4311;SDS011;2169;49.086;9.284;2023-10-09T09:24:38;9.83;;;4.50;;
4311;SDS011;2169;49.086;9.284;2023-10-09T09:27:10;19.80;;;6.43;;
4311;SDS011;2169;49.086;9.284;2023-10-09T09:29:43;14.50;;;5.33;;
4311;SDS011;2169;49.086;9.284;2023-10-09T09:32:18;10.00;;;3.77;;
4311;SDS011;2169;49.086;9.284;2023-10-09T09:35:02;18.57;;;6.20;;
4311;SDS011;2169;49.086;9.284;2023-10-09T09:37:31;11.83;;;4.53;;
4311;SDS011;2169;49.086;9.284;2023-10-09T09:40:15;14.17;;;4.63;;
4311;SDS011;2169;49.086;9.284;2023-10-09T09:42:54;10.43;;;4.13;;
4311;SDS011;2169;49.086;9.284;2023-10-09T09:45:29;19.03;;;5.33;;
4311;SDS011;2169;49.086;9.284;2023-10-09T09:47:58;12.57;;;4.73;;
4311;SDS011;2169;49.086;9.284;2023-10-09T09:50:32;22.73;;;5.67;;
4311;SDS011;2169;49.086;9.284;2023-10-09T09:53:02;8.23;;;3.47;;
4311;SDS011;2169;49.086;9.284;2023-10-09T09:55:33;7.27;;;3.27;;
4311;SDS011;2169;49.086;9.284;2023-10-09T09:58:07;9.90;;;3.90;;
4311;SDS011;2169;49.086;9.284;2023-10-09T10:00:43;20.30;;;4.20;;
4311;SDS011;2169;49.086;9.284;2023-10-09T10:03:18;6.97;;;3.03;;
4311;SDS011;2169;49.086;9.284;2023-10-09T10:05:49;12.00;;;6.13;;
4311;SDS011;2169;49.086;9.284;2023-10-09T10:08:19;17.20;;;5.67;;
4311;SDS011;2169;49.086;9.284;2023-10-09T10:10:48;14.30;;;3.93;;
4311;SDS011;2169;49.086;9.284;2023-10-09T10:13:18;33.60;;;4.87;;
4311;SDS011;2169;49.086;9.284;2023-10-09T10:16:31;15.13;;;3.10;;
4311;SDS011;2169;49.086;9.284;2023-10-09T10:19:00;11.60;;;2.67;;
4311;SDS011;2169;49.086;9.284;2023-10-09T10:21:48;6.00;;;2.77;;
4311;SDS011;2169;49.086;9.284;2023-10-09T10:27:22;19.23;;;4.40;;
4311;SDS011;2169;49.086;9.284;2023-10-09T10:32:58;17.67;;;3.03;;
4311;SDS011;2169;49.086;9.284;2023-10-09T10:35:34;27.37;;;6.70;;
4311;SDS011;2169;49.086;9.284;2023-10-09T10:38:27;17.63;;;5.33;;
4311;SDS011;2169;49.086;9.284;2023-10-09T10:41:12;9.40;;;2.73;;
4311;SDS011;2169;49.086;9.284;2023-10-09T10:43:42;9.97;;;4.33;;
4311;SDS011;2169;49.086;9.284;2023-10-09T10:46:24;9.30;;;3.23;;
4311;SDS011;2169;49.086;9.284;2023-10-09T10:48:59;25.33;;;3.03;;
4311;SDS011;2169;49.086;9.284;2023-10-09T10:51:40;16.37;;;2.70;;
4311;SDS011;2169;49.086;9.284;2023-10-09T10:54:20;22.83;;;3.20;;
4311;SDS011;2169;49.086;9.284;2023-10-09T10:57:13;15.17;;;3.83;;
4311;SDS011;2169;49.086;9.284;2023-10-09T10:59:53;13.77;;;4.10;;
4311;SDS011;2169;49.086;9.284;2023-10-09T11:02:37;14.27;;;4.07;;
4311;SDS011;2169;49.086;9.284;2023-10-09T11:05:06;12.03;;;3.20;;
4311;SDS011;2169;49.086;9.284;2023-10-09T11:07:48;5.97;;;2.47;;
4311;SDS011;2169;49.086;9.284;2023-10-09T11:10:24;9.70;;;3.60;;
4311;SDS011;2169;49.086;9.284;2023-10-09T11:13:02;12.27;;;2.70;;
4311;SDS011;2169;49.086;9.284;2023-10-09T11:15:55;14.23;;;2.80;;
4311;SDS011;2169;49.086;9.284;2023-10-09T11:18:41;6.33;;;1.90;;
4311;SDS011;2169;49.086;9.284;2023-10-09T11:21:12;11.27;;;3.40;;
4311;SDS011;2169;49.086;9.284;2023-10-09T11:23:56;9.17;;;2.47;;
4311;SDS011;2169;49.086;9.284;2023-10-09T11:26:46;9.07;;;2.47;;
4311;SDS011;2169;49.086;9.284;2023-10-09T11:29:19;12.70;;;2.67;;
4311;SDS011;2169;49.086;9.284;2023-10-09T11:32:01;5.20;;;2.40;;
4311;SDS011;2169;49.086;9.284;2023-10-09T11:34:30;7.87;;;3.30;;
4311;SDS011;2169;49.086;9.284;2023-10-09T11:36:57;11.03;;;2.63;;
4311;SDS011;2169;49.086;9.284;2023-10-09T11:39:26;9.80;;;3.90;;
4311;SDS011;2169;49.086;9.284;2023-10-09T11:42:14;26.27;;;3.30;;
4311;SDS011;2169;49.086;9.284;2023-10-09T11:45:00;7.20;;;2.20;;
4311;SDS011;2169;49.086;9.284;2023-10-09T11:47:34;6.63;;;3.13;;
4311;SDS011;2169;49.086;9.284;2023-10-09T11:50:00;17.50;;;3.13;;
4311;SDS011;2169;49.086;9.284;2023-10-09T11:52:56;9.30;;;3.17;;
4311;SDS011;2169;49.086;9.284;2023-10-09T11:55:35;23.67;;;4.87;;
4311;SDS011;2169;49.086;9.284;2023-10-09T11:58:03;14.30;;;3.70;;
4311;SDS011;2169;49.086;9.284;2023-10-09T12:00:32;8.83;;;2.47;;
4311;SDS011;2169;49.086;9.284;2023-10-09T12:03:10;7.20;;;3.40;;
4311;SDS011;2169;49.086;9.284;2023-10-09T12:05:38;12.27;;;2.40;;
4311;SDS011;2169;49.086;9.284;2023-10-09T12:08:09;11.87;;;3.70;;
4311;SDS011;2169;49.086;9.284;2023-10-09T12:10:39;10.43;;;2.63;;
4311;SDS011;2169;49.086;9.284;2023-10-09T12:13:08;3.33;;;1.83;;
4311;SDS011;2169;49.086;9.284;2023-10-09T12:15:35;5.73;;;2.30;;
4311;SDS011;2169;49.086;9.284;2023-10-09T12:18:05;21.63;;;3.77;;
4311;SDS011;2169;49.086;9.284;2023-10-09T12:20:41;12.23;;;2.50;;
4311;SDS011;2169;49.086;9.284;2023-10-09T12:23:15;8.40;;;2.77;;
4311;SDS011;2169;49.086;9.284;2023-10-09T12:25:42;5.77;;;2.50;;
4311;SDS011;2169;49.086;9.284;2023-10-09T12:28:11;10.80;;;2.67;;
4311;SDS011;2169;49.086;9.284;2023-10-09T12:30:41;11.27;;;4.20;;
4311;SDS011;2169;49.086;9.284;2023-10-09T12:33:15;9.90;;;3.10;;
4311;SDS011;2169;49.086;9.284;2023-10-09T12:35:43;9.77;;;2.70;;
4311;SDS011;2169;49.086;9.284;2023-10-09T12:38:12;8.10;;;2.40;;
4311;SDS011;2169;49.086;9.284;2023-10-09T12:40:43;17.80;;;2.80;;
4311;SDS011;2169;49.086;9.284;2023-10-09T12:43:17;12.63;;;4.97;;
4311;SDS011;2169;49.086;9.284;2023-10-09T12:45:53;12.10;;;3.43;;
4311;SDS011;2169;49.086;9.284;2023-10-09T12:48:22;9.60;;;2.40;;
4311;SDS011;2169;49.086;9.284;2023-10-09T12:50:55;6.03;;;3.33;;
4311;SDS011;2169;49.086;9.284;2023-10-09T12:53:23;19.90;;;3.90;;
4311;SDS011;2169;49.086;9.284;2023-10-09T12:55:53;21.07;;;2.93;;
4311;SDS011;2169;49.086;9.284;2023-10-09T12:58:23;8.87;;;3.50;;
4311;SDS011;2169;49.086;9.284;2023-10-09T13:00:52;13.80;;;2.10;;
4311;SDS011;2169;49.086;9.284;2023-10-09T13:03:19;13.40;;;2.70;;
4311;SDS011;2169;49.086;9.284;2023-10-09T13:05:47;5.73;;;2.13;;
4311;SDS011;2169;49.086;9.284;2023-10-09T13:08:19;7.20;;;1.63;;
4311;SDS011;2169;49.086;9.284;2023-10-09T13:10:47;7.17;;;2.20;;
4311;SDS011;2169;49.086;9.284;2023-10-09T13:13:25;11.00;;;2.60;;
4311;SDS011;2169;49.086;9.284;2023-10-09T13:16:04;10.13;;;2.47;;
4311;SDS011;2169;49.086;9.284;2023-10-09T13:18:48;7.60;;;2.00;;
4311;SDS011;2169;49.086;9.284;2023-10-09T13:21:22;10.37;;;2.00;;
4311;SDS011;2169;49.086;9.284;2023-10-09T13:23:51;4.63;;;2.50;;
4311;SDS011;2169;49.086;9.284;2023-10-09T13:26:20;6.07;;;2.23;;
4311;SDS011;2169;49.086;9.284;2023-10-09T13:28:54;22.13;;;2.87;;
4311;SDS011;2169;49.086;9.284;2023-10-09T13:31:23;12.97;;;4.07;;
4311;SDS011;2169;49.086;9.284;2023-10-09T13:33:53;25.93;;;2.50;;
4311;SDS011;2169;49.086;9.284;2023-10-09T13:36:21;5.73;;;2.67;;
4311;SDS011;2169;49.086;9.284;2023-10-09T13:38:56;8.10;;;3.07;;
4311;SDS011;2169;49.086;9.284;2023-10-09T13:41:27;17.90;;;3.40;;
4311;SDS011;2169;49.086;9.284;2023-10-09T13:43:56;17.13;;;3.10;;
4311;SDS011;2169;49.086;9.284;2023-10-09T13:46:23;11.63;;;2.50;;
4311;SDS011;2169;49.086;9.284;2023-10-09T13:48:51;3.93;;;1.90;;
4311;SDS011;2169;49.086;9.284;2023-10-09T13:51:18;10.23;;;2.90;;
4311;SDS011;2169;49.086;9.284;2023-10-09T13:53:48;10.63;;;2.70;;
4311;SDS011;2169;49.086;9.284;2023-10-09T13:56:16;12.10;;;3.40;;
4311;SDS011;2169;49.086;9.284;2023-10-09T13:58:45;15.23;;;3.60;;
4311;SDS011;2169;49.086;9.284;2023-10-09T14:01:22;24.97;;;3.27;;
4311;SDS011;2169;49.086;9.284;2023-10-09T14:04:03;6.10;;;2.07;;
4311;SDS011;2169;49.086;9.284;2023-10-09T14:06:33;11.13;;;2.93;;
4311;SDS011;2169;49.086;9.284;2023-10-09T14:09:02;17.13;;;5.20;;
4311;SDS011;2169;49.086;9.284;2023-10-09T14:11:30;5.63;;;2.17;;
4311;SDS011;2169;49.086;9.284;2023-10-09T14:13:58;16.97;;;2.40;;
4311;SDS011;2169;49.086;9.284;2023-10-09T14:16:28;11.17;;;2.13;;
4311;SDS011;2169;49.086;9.284;2023-10-09T14:18:58;11.00;;;2.60;;
4311;SDS011;2169;49.086;9.284;2023-10-09T14:21:32;11.60;;;2.83;;
4311;SDS011;2169;49.086;9.284;2023-10-09T14:24:03;6.43;;;2.70;;
4311;SDS011;2169;49.086;9.284;2023-10-09T14:26:40;8.73;;;2.40;;
4311;SDS011;2169;49.086;9.284;2023-10-09T14:29:11;22.93;;;2.60;;
4311;SDS011;2169;49.086;9.284;2023-10-09T14:31:43;16.10;;;2.77;;
4311;SDS011;2169;49.086;9.284;2023-10-09T14:34:14;23.33;;;4.13;;
4311;SDS011;2169;49.086;9.284;2023-10-09T14:36:41;21.23;;;3.47;;
4311;SDS011;2169;49.086;9.284;2023-10-09T14:39:10;9.83;;;3.50;;
4311;SDS011;2169;49.086;9.284;2023-10-09T14:41:43;30.13;;;3.13;;
4311;SDS011;2169;49.086;9.284;2023-10-09T14:44:12;14.03;;;3.07;;
4311;SDS011;2169;49.086;9.284;2023-10-09T14:46:42;16.10;;;2.77;;
4311;SDS011;2169;49.086;9.284;2023-10-09T14:49:09;18.57;;;4.63;;
4311;SDS011;2169;49.086;9.284;2023-10-09T14:51:39;6.27;;;2.03;;
4311;SDS011;2169;49.086;9.284;2023-10-09T14:54:06;14.73;;;2.70;;
4311;SDS011;2169;49.086;9.284;2023-10-09T14:56:33;5.37;;;2.23;;
4311;SDS011;2169;49.086;9.284;2023-10-09T14:59:02;8.67;;;2.80;;
4311;SDS011;2169;49.086;9.284;2023-10-09T15:01:30;5.73;;;3.03;;
4311;SDS011;2169;49.086;9.284;2023-10-09T15:03:59;14.00;;;2.60;;
4311;SDS011;2169;49.086;9.284;2023-10-09T15:06:30;6.80;;;2.40;;
4311;SDS011;2169;49.086;9.284;2023-10-09T15:08:57;6.07;;;2.40;;
4311;SDS011;2169;49.086;9.284;2023-10-09T15:11:31;6.20;;;2.80;;
4311;SDS011;2169;49.086;9.284;2023-10-09T15:14:03;4.77;;;1.87;;
4311;SDS011;2169;49.086;9.284;2023-10-09T15:16:31;16.87;;;2.50;;
4311;SDS011;2169;49.086;9.284;2023-10-09T15:19:02;15.17;;;2.57;;
4311;SDS011;2169;49.086;9.284;2023-10-09T15:21:30;35.07;;;3.00;;
4311;SDS011;2169;49.086;9.284;2023-10-09T15:24:04;10.63;;;2.97;;
4311;SDS011;2169;49.086;9.284;2023-10-09T15:26:33;11.33;;;3.43;;
4311;SDS011;2169;49.086;9.284;2023-10-09T15:29:00;8.57;;;2.70;;
4311;SDS011;2169;49.086;9.284;2023-10-09T15:31:31;9.10;;;3.37;;
4311;SDS011;2169;49.086;9.284;2023-10-09T15:34:03;12.90;;;3.00;;
4311;SDS011;2169;49.086;9.284;2023-10-09T15:36:33;6.07;;;3.10;;
4311;SDS011;2169;49.086;9.284;2023-10-09T15:39:09;12.27;;;3.00;;
4311;SDS011;2169;49.086;9.284;2023-10-09T15:41:51;5.73;;;3.07;;
4311;SDS011;2169;49.086;9.284;2023-10-09T15:44:20;10.13;;;3.30;;
4311;SDS011;2169;49.086;9.284;2023-10-09T15:46:50;11.43;;;3.30;;
4311;SDS011;2169;49.086;9.284;2023-10-09T15:49:26;9.60;;;3.23;;
4311;SDS011;2169;49.086;9.284;2023-10-09T15:52:02;15.03;;;4.03;;
4311;SDS011;2169;49.086;9.284;2023-10-09T15:54:33;24.27;;;3.43;;
4311;SDS011;2169;49.086;9.284;2023-10-09T15:57:00;9.97;;;2.93;;
4311;SDS011;2169;49.086;9.284;2023-10-09T15:59:26;11.10;;;3.10;;
4311;SDS011;2169;49.086;9.284;2023-10-09T16:01:53;14.93;;;3.40;;